createdAt,value
2023-03-21T00:34:35.000Z,16000.0
2023-03-21T00:35:35.000Z,16000.0
2023-03-21T00:36:36.000Z,15343.0
2023-03-21T00:37:35.000Z,16000.0
2023-03-21T00:38:35.000Z,16000.0
2023-03-21T00:39:36.000Z,16000.0
2023-03-21T00:40:35.000Z,16000.0
2023-03-21T00:41:36.000Z,16000.0
2023-03-21T00:42:35.000Z,16000.0
2023-03-21T00:43:35.000Z,16000.0
2023-03-21T00:44:36.000Z,16000.0
2023-03-21T00:45:35.000Z,16000.0
2023-03-21T00:46:35.000Z,16000.0
2023-03-21T00:47:36.000Z,16000.0
2023-03-21T00:48:35.000Z,16000.0
2023-03-21T00:49:35.000Z,15844.0
2023-03-21T00:50:36.000Z,15330.0
2023-03-21T00:51:35.000Z,14123.0
2023-03-21T00:52:36.000Z,13546.0
2023-03-21T00:53:35.000Z,14708.0
2023-03-21T00:54:35.000Z,14813.0
2023-03-21T00:55:36.000Z,16000.0
2023-03-21T00:56:35.000Z,16000.0
2023-03-21T00:57:35.000Z,16000.0
2023-03-21T00:58:36.000Z,16000.0
2023-03-21T00:59:35.000Z,16000.0
2023-03-21T01:00:36.000Z,16000.0
2023-03-21T01:01:35.000Z,16000.0
2023-03-21T01:02:35.000Z,16000.0
2023-03-21T01:03:36.000Z,16000.0
2023-03-21T01:04:35.000Z,16000.0
2023-03-21T01:05:36.000Z,16000.0
2023-03-21T01:06:35.000Z,16000.0
2023-03-21T01:07:35.000Z,16000.0
2023-03-21T01:08:36.000Z,16000.0
2023-03-21T01:09:35.000Z,16000.0
2023-03-21T01:10:35.000Z,16000.0
2023-03-21T01:11:35.000Z,15899.0
2023-03-21T01:12:35.000Z,16000.0
2023-03-21T01:13:36.000Z,16000.0
2023-03-21T01:14:35.000Z,15124.0
2023-03-21T01:15:35.000Z,14747.0
2023-03-21T01:16:36.000Z,12730.0
2023-03-21T01:17:35.000Z,13720.0
2023-03-21T01:18:36.000Z,12850.0
2023-03-21T01:19:35.000Z,13210.0
2023-03-21T01:20:35.000Z,13490.0
2023-03-21T01:21:36.000Z,13153.0
2023-03-21T01:22:35.000Z,12776.0
2023-03-21T01:23:35.000Z,12424.0
2023-03-21T01:24:36.000Z,13113.0
2023-03-21T01:25:35.000Z,13528.0
2023-03-21T01:26:36.000Z,14578.0
2023-03-21T01:27:35.000Z,14259.0
2023-03-21T01:28:35.000Z,13833.0
2023-03-21T01:29:36.000Z,14710.0
2023-03-21T01:30:35.000Z,15064.0
2023-03-21T01:31:36.000Z,14241.0
2023-03-21T01:32:35.000Z,14509.0
2023-03-21T01:33:35.000Z,13612.0
2023-03-21T01:34:36.000Z,13599.0
2023-03-21T01:35:35.000Z,13244.0
2023-03-21T01:36:35.000Z,14365.0
2023-03-21T01:37:36.000Z,14799.0
2023-03-21T01:38:35.000Z,14364.0
2023-03-21T01:39:36.000Z,14687.0
2023-03-21T01:40:35.000Z,13620.0
2023-03-21T01:41:35.000Z,13656.0
2023-03-21T01:42:36.000Z,13841.0
2023-03-21T01:43:35.000Z,14750.0
2023-03-21T01:44:35.000Z,14126.0
2023-03-21T01:45:35.000Z,14843.0
2023-03-21T01:46:35.000Z,16000.0
2023-03-21T01:47:36.000Z,15149.0
2023-03-21T01:48:35.000Z,16000.0
2023-03-21T01:49:35.000Z,16000.0
2023-03-21T01:50:36.000Z,15670.0
2023-03-21T01:51:35.000Z,16000.0
2023-03-21T01:52:35.000Z,16000.0
2023-03-21T01:53:36.000Z,16000.0
2023-03-21T01:54:35.000Z,15553.0
2023-03-21T01:55:35.000Z,15455.0
2023-03-21T01:56:35.000Z,14627.0
2023-03-21T01:57:35.000Z,14983.0
2023-03-21T01:58:36.000Z,15835.0
2023-03-21T01:59:35.000Z,15074.0
2023-03-21T02:00:35.000Z,15089.0
2023-03-21T02:01:36.000Z,14841.0
2023-03-21T02:02:35.000Z,13937.0
2023-03-21T02:03:36.000Z,13845.0
2023-03-21T02:04:35.000Z,13606.0
2023-03-21T02:05:35.000Z,13728.0
2023-03-21T02:06:36.000Z,14681.0
2023-03-21T02:07:35.000Z,13868.0
2023-03-21T02:08:35.000Z,12636.0
2023-03-21T02:09:35.000Z,13121.0
2023-03-21T02:10:35.000Z,11964.0
2023-03-21T02:11:36.000Z,12547.0
2023-03-21T02:12:35.000Z,13432.0
2023-03-21T02:13:35.000Z,14149.0
2023-03-21T02:14:36.000Z,14578.0
2023-03-21T02:15:35.000Z,13818.0
2023-03-21T02:16:36.000Z,16000.0
2023-03-21T02:17:35.000Z,14955.0
2023-03-21T02:18:35.000Z,15645.0
2023-03-21T02:19:36.000Z,16000.0
2023-03-21T02:20:35.000Z,15300.0
2023-03-21T02:21:35.000Z,14623.0
2023-03-21T02:22:35.000Z,15351.0
2023-03-21T02:23:35.000Z,14554.0
2023-03-21T02:24:36.000Z,14731.0
2023-03-21T02:25:35.000Z,14218.0
2023-03-21T02:26:35.000Z,14488.0
2023-03-21T02:27:36.000Z,14386.0
2023-03-21T02:28:35.000Z,14221.0
2023-03-21T02:29:36.000Z,14705.0
2023-03-21T02:30:35.000Z,15973.0
2023-03-21T02:31:35.000Z,16000.0
2023-03-21T02:32:36.000Z,16000.0
2023-03-21T02:33:35.000Z,16000.0
2023-03-21T02:34:35.000Z,16000.0
2023-03-21T02:35:36.000Z,16000.0
2023-03-21T02:36:35.000Z,16000.0
2023-03-21T02:37:36.000Z,15473.0
2023-03-21T02:38:35.000Z,16000.0
2023-03-21T02:39:35.000Z,16000.0
2023-03-21T02:40:36.000Z,14391.0
2023-03-21T02:41:35.000Z,14722.0
2023-03-21T02:42:36.000Z,14690.0
2023-03-21T02:43:35.000Z,14426.0
2023-03-21T02:44:35.000Z,14350.0
2023-03-21T02:45:36.000Z,13929.0
2023-03-21T02:46:35.000Z,13523.0
2023-03-21T02:47:35.000Z,12914.0
2023-03-21T02:48:35.000Z,13523.0
2023-03-21T02:49:35.000Z,14362.0
2023-03-21T02:50:36.000Z,13218.0
2023-03-21T02:51:35.000Z,13775.0
2023-03-21T02:52:35.000Z,14068.0
2023-03-21T02:53:36.000Z,16000.0
2023-03-21T02:54:35.000Z,15902.0
2023-03-21T02:55:35.000Z,14545.0
2023-03-21T02:56:36.000Z,15114.0
2023-03-21T02:57:35.000Z,14570.0
2023-03-21T02:58:36.000Z,14555.0
2023-03-21T02:59:35.000Z,13099.0
2023-03-21T03:00:35.000Z,12625.0
2023-03-21T03:01:36.000Z,12277.0
2023-03-21T03:02:35.000Z,10981.0
2023-03-21T03:03:36.000Z,10565.0
2023-03-21T03:04:35.000Z,11060.0
2023-03-21T03:05:35.000Z,11069.0
2023-03-21T03:06:36.000Z,10894.0
2023-03-21T03:07:35.000Z,10845.0
2023-03-21T03:08:35.000Z,10195.0
2023-03-21T03:09:35.000Z,9882.0
2023-03-21T03:10:35.000Z,9977.0
2023-03-21T03:11:36.000Z,10302.0
2023-03-21T03:12:35.000Z,10700.0
2023-03-21T03:13:35.000Z,11414.0
2023-03-21T03:14:36.000Z,10671.0
2023-03-21T03:15:35.000Z,10842.0
2023-03-21T03:16:35.000Z,9689.0
2023-03-21T03:17:35.000Z,9245.0
2023-03-21T03:18:35.000Z,8705.0
2023-03-21T03:19:36.000Z,8804.0
2023-03-21T03:20:35.000Z,8978.0
2023-03-21T03:21:35.000Z,8606.0
2023-03-21T03:22:36.000Z,7928.0
2023-03-21T03:23:35.000Z,8272.0
2023-03-21T03:24:36.000Z,8197.0
2023-03-21T03:25:35.000Z,8445.0
2023-03-21T03:26:35.000Z,7750.0
2023-03-21T03:27:36.000Z,7881.0
2023-03-21T03:28:35.000Z,7808.0
2023-03-21T03:29:36.000Z,7462.0
2023-03-21T03:30:35.000Z,7335.0
2023-03-21T03:31:35.000Z,7212.0
2023-03-21T03:32:36.000Z,6701.0
2023-03-21T03:33:35.000Z,6511.0
2023-03-21T03:34:35.000Z,6262.0
2023-03-21T03:35:35.000Z,6151.0
2023-03-21T03:36:35.000Z,6079.0
2023-03-21T03:37:36.000Z,5929.0
2023-03-21T03:38:35.000Z,6052.0
2023-03-21T03:39:35.000Z,5874.0
2023-03-21T03:40:36.000Z,5974.0
2023-03-21T03:41:35.000Z,5784.0
2023-03-21T03:42:35.000Z,5739.0
2023-03-21T03:43:35.000Z,5655.0
2023-03-21T03:44:35.000Z,5639.0
2023-03-21T03:45:36.000Z,5483.0
2023-03-21T03:46:35.000Z,5345.0
2023-03-21T03:47:35.000Z,5314.0
2023-03-21T03:48:36.000Z,5366.0
2023-03-21T03:49:35.000Z,5553.0
2023-03-21T03:50:35.000Z,5328.0
2023-03-21T03:51:36.000Z,5479.0
2023-03-21T03:52:35.000Z,5390.0
2023-03-21T03:53:35.000Z,5137.0
2023-03-21T03:54:35.000Z,5108.0
2023-03-21T03:55:35.000Z,5060.0
2023-03-21T03:56:36.000Z,5221.0
2023-03-21T03:57:35.000Z,5247.0
2023-03-21T03:58:35.000Z,5331.0
2023-03-21T03:59:36.000Z,5399.0
2023-03-21T04:00:35.000Z,5359.0
2023-03-21T04:01:36.000Z,5366.0
2023-03-21T04:02:35.000Z,5398.0
2023-03-21T04:03:35.000Z,5128.0
2023-03-21T04:04:36.000Z,5185.0
2023-03-21T04:05:35.000Z,4858.0
2023-03-21T04:06:35.000Z,4830.0
2023-03-21T04:07:35.000Z,4924.0
2023-03-21T04:08:35.000Z,4861.0
2023-03-21T04:09:36.000Z,5016.0
2023-03-21T04:10:35.000Z,5245.0
2023-03-21T04:11:35.000Z,4985.0
2023-03-21T04:12:36.000Z,4944.0
2023-03-21T04:13:35.000Z,5057.0
2023-03-21T04:14:36.000Z,4793.0
2023-03-21T04:15:35.000Z,4852.0
2023-03-21T04:16:35.000Z,4805.0
2023-03-21T04:17:36.000Z,5055.0
2023-03-21T04:18:35.000Z,5014.0
2023-03-21T04:19:35.000Z,4989.0
2023-03-21T04:20:35.000Z,4944.0
2023-03-21T04:21:35.000Z,4821.0
2023-03-21T04:22:36.000Z,4848.0
2023-03-21T04:23:35.000Z,4791.0
2023-03-21T04:24:35.000Z,4727.0
2023-03-21T04:25:36.000Z,4818.0
2023-03-21T04:26:35.000Z,4803.0
2023-03-21T04:27:36.000Z,4818.0
2023-03-21T04:28:35.000Z,4751.0
2023-03-21T04:29:35.000Z,4546.0
2023-03-21T04:30:36.000Z,4335.0
2023-03-21T04:31:35.000Z,4404.0
2023-03-21T04:32:35.000Z,4420.0
2023-03-21T04:33:35.000Z,4388.0
2023-03-21T04:34:35.000Z,4453.0
2023-03-21T04:35:36.000Z,4432.0
2023-03-21T04:36:35.000Z,4365.0
2023-03-21T04:37:35.000Z,4453.0
2023-03-21T04:38:36.000Z,4770.0
2023-03-21T04:39:35.000Z,4897.0
2023-03-21T04:40:36.000Z,4870.0
2023-03-21T04:41:35.000Z,4684.0
2023-03-21T04:42:35.000Z,4811.0
2023-03-21T04:43:36.000Z,5012.0
2023-03-21T04:44:35.000Z,4908.0
2023-03-21T04:45:35.000Z,5064.0
2023-03-21T04:46:35.000Z,5086.0
2023-03-21T04:47:35.000Z,5154.0
2023-03-21T04:48:36.000Z,5054.0
2023-03-21T04:49:35.000Z,5012.0
2023-03-21T04:50:35.000Z,5043.0
2023-03-21T04:51:36.000Z,5153.0
2023-03-21T04:52:35.000Z,5063.0
2023-03-21T04:53:35.000Z,4923.0
2023-03-21T04:54:36.000Z,5023.0
2023-03-21T04:55:35.000Z,5102.0
2023-03-21T04:56:35.000Z,4972.0
2023-03-21T04:57:35.000Z,4712.0
2023-03-21T04:58:35.000Z,4886.0
2023-03-21T04:59:36.000Z,4760.0
2023-03-21T05:00:35.000Z,4796.0
2023-03-21T05:01:35.000Z,4569.0
2023-03-21T05:02:36.000Z,4392.0
2023-03-21T05:03:35.000Z,4749.0
2023-03-21T05:04:36.000Z,4717.0
2023-03-21T05:05:35.000Z,4787.0
2023-03-21T05:06:35.000Z,4722.0
2023-03-21T05:07:36.000Z,4781.0
2023-03-21T05:08:35.000Z,4768.0
2023-03-21T05:09:35.000Z,4850.0
2023-03-21T05:10:35.000Z,5006.0
2023-03-21T05:11:35.000Z,4982.0
2023-03-21T05:12:36.000Z,5163.0
2023-03-21T05:13:35.000Z,5283.0
2023-03-21T05:14:35.000Z,5096.0
2023-03-21T05:15:36.000Z,5099.0
2023-03-21T05:16:35.000Z,4941.0
2023-03-21T05:17:35.000Z,4983.0
2023-03-21T05:18:35.000Z,4890.0
2023-03-21T05:19:35.000Z,4648.0
2023-03-21T05:20:36.000Z,4494.0
2023-03-21T05:21:35.000Z,4325.0
2023-03-21T05:22:35.000Z,4446.0
2023-03-21T05:23:35.000Z,4431.0
2023-03-21T05:24:35.000Z,4362.0
2023-03-21T05:25:36.000Z,4361.0
2023-03-21T05:26:35.000Z,4159.0
2023-03-21T05:27:35.000Z,4008.0
2023-03-21T05:28:36.000Z,3808.0
2023-03-21T05:29:35.000Z,3840.0
2023-03-21T05:30:36.000Z,3819.0
2023-03-21T05:31:35.000Z,3719.0
2023-03-21T05:32:35.000Z,3515.0
2023-03-21T05:33:36.000Z,3412.0
2023-03-21T05:34:35.000Z,3371.0
2023-03-21T05:35:35.000Z,3341.0
2023-03-21T05:36:35.000Z,3389.0
2023-03-21T05:37:35.000Z,3540.0
2023-03-21T05:38:36.000Z,3783.0
2023-03-21T05:39:35.000Z,3721.0
2023-03-21T05:40:35.000Z,3506.0
2023-03-21T05:41:36.000Z,3228.0
2023-03-21T05:42:35.000Z,3344.0
2023-03-21T05:43:35.000Z,3360.0
2023-03-21T05:44:35.000Z,3289.0
2023-03-21T05:45:35.000Z,3178.0
2023-03-21T05:46:36.000Z,3196.0
2023-03-21T05:47:35.000Z,3271.0
2023-03-21T05:48:35.000Z,3257.0
2023-03-21T05:49:36.000Z,3088.0
2023-03-21T05:50:35.000Z,3155.0
2023-03-21T05:51:35.000Z,3151.0
2023-03-21T05:52:36.000Z,2990.0
2023-03-21T05:53:35.000Z,3030.0
2023-03-21T05:54:35.000Z,2903.0
2023-03-21T05:55:35.000Z,2866.0
2023-03-21T05:56:35.000Z,2874.0
2023-03-21T05:57:36.000Z,2878.0
2023-03-21T05:58:35.000Z,2941.0
2023-03-21T05:59:35.000Z,3046.0
2023-03-21T06:00:35.000Z,3083.0
2023-03-21T06:01:35.000Z,3248.0
2023-03-21T06:02:36.000Z,3296.0
2023-03-21T06:03:35.000Z,3346.0
2023-03-21T06:04:35.000Z,3541.0
2023-03-21T06:05:36.000Z,3574.0
2023-03-21T06:06:35.000Z,3659.0
2023-03-21T06:07:36.000Z,3640.0
2023-03-21T06:08:35.000Z,3870.0
2023-03-21T06:09:35.000Z,3860.0
2023-03-21T06:10:36.000Z,4008.0
2023-03-21T06:11:35.000Z,4033.0
2023-03-21T06:12:35.000Z,4339.0
2023-03-21T06:13:35.000Z,4208.0
2023-03-21T06:14:35.000Z,4303.0
2023-03-21T06:15:36.000Z,4432.0
2023-03-21T06:16:35.000Z,4698.0
2023-03-21T06:17:35.000Z,4642.0
2023-03-21T06:18:36.000Z,4549.0
2023-03-21T06:19:35.000Z,4927.0
2023-03-21T06:20:35.000Z,5077.0
2023-03-21T06:21:35.000Z,5087.0
2023-03-21T06:22:35.000Z,5333.0
2023-03-21T06:23:36.000Z,5274.0
2023-03-21T06:24:35.000Z,5172.0
2023-03-21T06:25:35.000Z,5073.0
2023-03-21T06:26:35.000Z,5578.0
2023-03-21T06:27:35.000Z,5627.0
2023-03-21T06:28:36.000Z,5462.0
2023-03-21T06:29:35.000Z,5729.0
2023-03-21T06:30:35.000Z,5792.0
2023-03-21T06:31:36.000Z,5977.0
2023-03-21T06:32:35.000Z,6332.0
2023-03-21T06:33:35.000Z,6538.0
2023-03-21T06:34:35.000Z,6722.0
2023-03-21T06:35:35.000Z,6783.0
2023-03-21T06:36:36.000Z,6727.0
2023-03-21T06:37:35.000Z,6994.0
2023-03-21T06:38:35.000Z,7240.0
2023-03-21T06:39:35.000Z,7074.0
2023-03-21T06:40:35.000Z,7448.0
2023-03-21T06:41:36.000Z,7712.0
2023-03-21T06:42:35.000Z,7754.0
2023-03-21T06:43:35.000Z,8060.0
2023-03-21T06:44:36.000Z,8724.0
2023-03-21T06:45:35.000Z,8866.0
2023-03-21T06:46:35.000Z,8834.0
2023-03-21T06:47:35.000Z,9135.0
2023-03-21T06:48:35.000Z,9294.0
2023-03-21T06:49:35.000Z,9474.0
2023-03-21T06:50:35.000Z,9687.0
2023-03-21T06:51:35.000Z,9310.0
2023-03-21T06:52:36.000Z,8837.0
2023-03-21T06:53:35.000Z,8938.0
2023-03-21T06:54:35.000Z,8555.0
2023-03-21T06:55:36.000Z,9062.0
2023-03-21T06:56:35.000Z,9261.0
2023-03-21T06:57:35.000Z,9483.0
2023-03-21T06:58:35.000Z,10155.0
2023-03-21T06:59:35.000Z,10716.0
2023-03-21T07:00:36.000Z,10809.0
2023-03-21T07:01:35.000Z,11304.0
2023-03-21T07:02:35.000Z,11540.0
2023-03-21T07:03:36.000Z,11379.0
2023-03-21T07:04:35.000Z,11332.0
2023-03-21T07:05:35.000Z,11174.0
2023-03-21T07:06:35.000Z,11178.0
2023-03-21T07:07:35.000Z,11642.0
2023-03-21T07:08:36.000Z,11630.0
2023-03-21T07:09:35.000Z,11679.0
2023-03-21T07:10:35.000Z,11782.0
2023-03-21T07:11:35.000Z,11898.0
2023-03-21T07:12:35.000Z,11021.0
2023-03-21T07:13:36.000Z,10125.0
2023-03-21T07:14:35.000Z,9710.0
2023-03-21T07:15:35.000Z,8781.0
2023-03-21T07:16:36.000Z,8737.0
2023-03-21T07:17:35.000Z,8254.0
2023-03-21T07:18:36.000Z,8166.0
2023-03-21T07:19:35.000Z,7709.0
2023-03-21T07:20:35.000Z,7487.0
2023-03-21T07:21:36.000Z,7355.0
2023-03-21T07:22:35.000Z,7531.0
2023-03-21T07:23:35.000Z,6907.0
2023-03-21T07:24:35.000Z,7118.0
2023-03-21T07:25:35.000Z,6801.0
2023-03-21T07:26:36.000Z,6918.0
2023-03-21T07:27:35.000Z,6413.0
2023-03-21T07:28:35.000Z,6645.0
2023-03-21T07:29:36.000Z,6787.0
2023-03-21T07:30:35.000Z,6808.0
2023-03-21T07:31:35.000Z,6735.0
2023-03-21T07:32:35.000Z,6775.0
2023-03-21T07:33:35.000Z,6226.0
2023-03-21T07:34:36.000Z,6678.0
2023-03-21T07:35:35.000Z,6986.0
2023-03-21T07:36:35.000Z,7388.0
2023-03-21T07:37:35.000Z,7511.0
2023-03-21T07:38:35.000Z,7533.0
2023-03-21T07:39:36.000Z,7566.0
2023-03-21T07:40:35.000Z,7806.0
2023-03-21T07:41:35.000Z,7809.0
2023-03-21T07:42:36.000Z,7700.0
2023-03-21T07:43:35.000Z,7841.0
2023-03-21T07:44:35.000Z,7855.0
2023-03-21T07:45:35.000Z,8126.0
2023-03-21T07:46:35.000Z,8704.0
2023-03-21T07:47:36.000Z,8841.0
2023-03-21T07:48:35.000Z,9116.0
2023-03-21T07:49:35.000Z,8860.0
2023-03-21T07:50:36.000Z,9407.0
2023-03-21T07:51:35.000Z,9760.0
2023-03-21T07:52:35.000Z,9889.0
2023-03-21T07:53:36.000Z,10042.0
2023-03-21T07:54:35.000Z,10738.0
2023-03-21T07:55:35.000Z,10843.0
2023-03-21T07:56:35.000Z,11154.0
2023-03-21T07:57:35.000Z,10860.0
2023-03-21T07:58:36.000Z,11123.0
2023-03-21T07:59:35.000Z,11191.0
2023-03-21T08:00:35.000Z,10856.0
2023-03-21T08:01:36.000Z,10425.0
2023-03-21T08:02:35.000Z,10278.0
2023-03-21T08:03:36.000Z,10024.0
2023-03-21T08:04:35.000Z,10319.0
2023-03-21T08:05:35.000Z,10739.0
2023-03-21T08:06:36.000Z,9979.0
2023-03-21T08:07:35.000Z,10825.0
2023-03-21T08:08:35.000Z,10772.0
2023-03-21T08:09:35.000Z,11296.0
2023-03-21T08:10:35.000Z,10871.0
2023-03-21T08:11:36.000Z,10551.0
2023-03-21T08:12:35.000Z,10798.0
2023-03-21T08:13:35.000Z,10212.0
2023-03-21T08:14:36.000Z,10447.0
2023-03-21T08:15:35.000Z,10268.0
2023-03-21T08:16:35.000Z,9499.0
2023-03-21T08:17:35.000Z,9397.0
2023-03-21T08:18:35.000Z,8633.0
2023-03-21T08:19:36.000Z,8589.0
2023-03-21T08:20:35.000Z,8889.0
2023-03-21T08:21:35.000Z,8985.0
2023-03-21T08:22:35.000Z,8970.0
2023-03-21T08:23:35.000Z,9361.0
2023-03-21T08:24:36.000Z,9297.0
2023-03-21T08:25:35.000Z,8921.0
2023-03-21T08:26:35.000Z,9364.0
2023-03-21T08:27:36.000Z,9440.0
2023-03-21T08:28:35.000Z,9621.0
2023-03-21T08:29:36.000Z,9005.0
2023-03-21T08:30:35.000Z,9021.0
2023-03-21T08:31:35.000Z,9077.0
2023-03-21T08:32:36.000Z,8847.0
2023-03-21T08:33:35.000Z,9265.0
2023-03-21T08:34:35.000Z,9692.0
2023-03-21T08:35:35.000Z,9424.0
2023-03-21T08:36:35.000Z,9935.0
2023-03-21T08:37:36.000Z,10192.0
2023-03-21T08:38:35.000Z,10402.0
2023-03-21T08:39:35.000Z,10381.0
2023-03-21T08:40:36.000Z,10115.0
2023-03-21T08:41:35.000Z,10148.0
2023-03-21T08:42:35.000Z,11088.0
2023-03-21T08:43:35.000Z,11427.0
2023-03-21T08:44:35.000Z,10548.0
2023-03-21T08:45:36.000Z,10852.0
2023-03-21T08:46:35.000Z,10375.0
2023-03-21T08:47:35.000Z,10557.0
2023-03-21T08:48:35.000Z,11744.0
2023-03-21T08:49:35.000Z,12042.0
2023-03-21T08:50:35.000Z,11123.0
2023-03-21T08:51:36.000Z,11880.0
2023-03-21T08:52:35.000Z,10893.0
2023-03-21T08:53:35.000Z,10523.0
2023-03-21T08:54:35.000Z,11121.0
2023-03-21T08:55:35.000Z,11655.0
2023-03-21T08:56:36.000Z,10709.0
2023-03-21T08:57:35.000Z,11590.0
2023-03-21T08:58:35.000Z,11593.0
2023-03-21T08:59:35.000Z,11759.0
2023-03-21T09:00:35.000Z,10566.0
2023-03-21T09:01:36.000Z,10983.0
2023-03-21T09:02:35.000Z,10073.0
2023-03-21T09:03:35.000Z,9914.0
2023-03-21T09:04:36.000Z,9024.0
2023-03-21T09:05:35.000Z,8654.0
2023-03-21T09:06:35.000Z,9106.0
2023-03-21T09:07:35.000Z,8502.0
2023-03-21T09:08:35.000Z,8510.0
2023-03-21T09:09:36.000Z,8294.0
2023-03-21T09:10:35.000Z,8191.0
2023-03-21T09:11:35.000Z,7910.0
2023-03-21T09:12:35.000Z,7966.0
2023-03-21T09:13:35.000Z,8110.0
2023-03-21T09:14:36.000Z,8147.0
2023-03-21T09:15:35.000Z,8473.0
2023-03-21T09:16:35.000Z,8165.0
2023-03-21T09:17:36.000Z,8662.0
2023-03-21T09:18:35.000Z,8416.0
2023-03-21T09:19:35.000Z,7840.0
2023-03-21T09:20:35.000Z,7893.0
2023-03-21T09:21:35.000Z,7955.0
2023-03-21T09:22:36.000Z,8012.0
2023-03-21T09:23:35.000Z,7801.0
2023-03-21T09:24:35.000Z,8137.0
2023-03-21T09:25:35.000Z,7899.0
2023-03-21T09:26:35.000Z,7748.0
2023-03-21T09:27:36.000Z,8248.0
2023-03-21T09:28:35.000Z,7815.0
2023-03-21T09:29:35.000Z,8182.0
2023-03-21T09:30:36.000Z,7709.0
2023-03-21T09:31:35.000Z,8164.0
2023-03-21T09:32:35.000Z,7997.0
2023-03-21T09:33:35.000Z,7809.0
2023-03-21T09:34:35.000Z,7791.0
2023-03-21T09:35:36.000Z,8247.0
2023-03-21T09:36:35.000Z,8585.0
2023-03-21T09:37:35.000Z,8894.0
2023-03-21T09:38:35.000Z,9003.0
2023-03-21T09:39:35.000Z,9288.0
2023-03-21T09:40:36.000Z,9097.0
2023-03-21T09:41:35.000Z,8735.0
2023-03-21T09:42:35.000Z,8994.0
2023-03-21T09:43:36.000Z,9113.0
2023-03-21T09:44:35.000Z,9418.0
2023-03-21T09:45:35.000Z,9693.0
2023-03-21T09:46:35.000Z,9910.0
2023-03-21T09:47:35.000Z,10394.0
2023-03-21T09:48:36.000Z,11040.0
2023-03-21T09:49:35.000Z,10249.0
2023-03-21T09:50:35.000Z,10772.0
2023-03-21T09:51:36.000Z,11060.0
2023-03-21T09:52:35.000Z,11440.0
2023-03-21T09:53:35.000Z,11457.0
2023-03-21T09:54:36.000Z,12079.0
2023-03-21T09:55:35.000Z,11617.0
2023-03-21T09:56:35.000Z,11313.0
2023-03-21T09:57:35.000Z,11923.0
2023-03-21T09:58:35.000Z,11194.0
2023-03-21T09:59:36.000Z,11539.0
2023-03-21T10:00:35.000Z,12902.0
2023-03-21T10:01:35.000Z,12265.0
2023-03-21T10:02:35.000Z,11732.0
2023-03-21T10:03:35.000Z,12479.0
2023-03-21T10:04:36.000Z,12467.0
2023-03-21T10:05:35.000Z,13597.0
2023-03-21T10:06:35.000Z,15138.0
2023-03-21T10:07:36.000Z,15270.0
2023-03-21T10:08:35.000Z,12991.0
2023-03-21T10:09:35.000Z,13700.0
2023-03-21T10:10:35.000Z,14740.0
2023-03-21T10:11:35.000Z,13144.0
2023-03-21T10:12:36.000Z,12031.0
2023-03-21T10:13:35.000Z,11100.0
2023-03-21T10:14:35.000Z,11073.0
2023-03-21T10:15:35.000Z,11493.0
2023-03-21T10:16:35.000Z,12255.0
2023-03-21T10:17:35.000Z,12715.0
2023-03-21T10:18:35.000Z,15862.0
2023-03-21T10:19:35.000Z,15520.0
2023-03-21T10:20:36.000Z,16000.0
2023-03-21T10:21:35.000Z,15218.0
2023-03-21T10:22:35.000Z,15022.0
2023-03-21T10:23:35.000Z,14292.0
2023-03-21T10:24:35.000Z,13624.0
2023-03-21T10:25:36.000Z,13476.0
2023-03-21T10:26:35.000Z,13061.0
2023-03-21T10:27:35.000Z,13712.0
2023-03-21T10:28:34.000Z,14608.0
2023-03-21T10:29:35.000Z,14319.0
2023-03-21T10:30:36.000Z,14179.0
2023-03-21T10:31:35.000Z,13083.0
2023-03-21T10:32:35.000Z,15588.0
2023-03-21T10:33:36.000Z,13763.0
2023-03-21T10:34:35.000Z,13514.0
2023-03-21T10:35:35.000Z,14455.0
2023-03-21T10:36:35.000Z,15017.0
2023-03-21T10:37:35.000Z,16000.0
2023-03-21T10:38:36.000Z,15396.0
2023-03-21T10:39:35.000Z,16000.0
2023-03-21T10:40:35.000Z,15087.0
2023-03-21T10:41:35.000Z,14777.0
2023-03-21T10:42:35.000Z,15922.0
2023-03-21T10:43:35.000Z,16000.0
2023-03-21T10:44:35.000Z,16000.0
2023-03-21T10:45:35.000Z,16000.0
2023-03-21T10:46:36.000Z,15646.0
2023-03-21T10:47:35.000Z,14795.0
2023-03-21T10:48:35.000Z,16000.0
2023-03-21T10:49:36.000Z,14955.0
2023-03-21T10:50:35.000Z,14135.0
2023-03-21T10:51:35.000Z,13816.0
2023-03-21T10:52:35.000Z,13504.0
2023-03-21T10:53:35.000Z,13609.0
2023-03-21T10:54:36.000Z,13681.0
2023-03-21T10:55:35.000Z,15140.0
2023-03-21T10:56:35.000Z,14967.0
2023-03-21T10:57:36.000Z,13929.0
2023-03-21T10:58:35.000Z,12403.0
2023-03-21T10:59:35.000Z,12891.0
2023-03-21T11:00:35.000Z,12490.0
2023-03-21T11:01:35.000Z,12463.0
2023-03-21T11:02:36.000Z,11803.0
2023-03-21T11:03:35.000Z,12290.0
2023-03-21T11:04:35.000Z,12253.0
2023-03-21T11:05:36.000Z,14929.0
2023-03-21T11:06:35.000Z,15871.0
2023-03-21T11:07:35.000Z,16000.0
2023-03-21T11:08:35.000Z,16000.0
2023-03-21T11:09:35.000Z,15377.0
2023-03-21T11:10:36.000Z,15516.0
2023-03-21T11:11:35.000Z,15943.0
2023-03-21T11:12:35.000Z,16000.0
2023-03-21T11:13:35.000Z,15457.0
2023-03-21T11:14:35.000Z,14959.0
2023-03-21T11:15:36.000Z,16000.0
2023-03-21T11:16:35.000Z,16000.0
2023-03-21T11:17:35.000Z,16000.0
2023-03-21T11:18:34.000Z,16000.0
2023-03-21T11:19:35.000Z,16000.0
2023-03-21T11:20:35.000Z,16000.0
2023-03-21T11:21:35.000Z,16000.0
2023-03-21T11:22:35.000Z,16000.0
2023-03-21T11:23:36.000Z,16000.0
2023-03-21T11:24:35.000Z,16000.0
2023-03-21T11:25:35.000Z,16000.0
2023-03-21T11:26:35.000Z,16000.0
2023-03-21T11:27:35.000Z,16000.0
2023-03-21T11:28:36.000Z,16000.0
2023-03-21T11:29:35.000Z,16000.0
2023-03-21T11:30:35.000Z,16000.0
2023-03-21T11:31:36.000Z,16000.0
2023-03-21T11:32:35.000Z,16000.0
2023-03-21T11:33:35.000Z,16000.0
2023-03-21T11:34:35.000Z,16000.0
2023-03-21T11:35:35.000Z,16000.0
2023-03-21T11:36:36.000Z,16000.0
2023-03-21T11:37:35.000Z,16000.0
2023-03-21T11:38:35.000Z,16000.0
2023-03-21T11:39:35.000Z,16000.0
2023-03-21T11:40:35.000Z,16000.0
2023-03-21T11:41:36.000Z,16000.0
2023-03-21T11:42:35.000Z,16000.0
2023-03-21T11:43:35.000Z,16000.0
2023-03-21T11:44:34.000Z,16000.0
2023-03-21T11:45:35.000Z,16000.0
2023-03-21T11:46:35.000Z,16000.0
2023-03-21T11:47:35.000Z,16000.0
2023-03-21T11:48:35.000Z,16000.0
2023-03-21T11:49:35.000Z,16000.0
2023-03-21T11:50:35.000Z,16000.0
2023-03-21T11:51:35.000Z,15473.0
2023-03-21T11:52:36.000Z,15036.0
2023-03-21T11:53:35.000Z,14192.0
2023-03-21T11:54:35.000Z,12662.0
2023-03-21T11:55:36.000Z,12900.0
2023-03-21T11:56:35.000Z,13911.0
2023-03-21T11:57:35.000Z,15753.0
2023-03-21T11:58:35.000Z,13828.0
2023-03-21T11:59:35.000Z,14264.0
2023-03-21T12:00:36.000Z,14161.0
2023-03-21T12:01:35.000Z,13938.0
2023-03-21T12:02:35.000Z,13115.0
2023-03-21T12:03:35.000Z,13059.0
2023-03-21T12:04:35.000Z,13784.0
2023-03-21T12:05:35.000Z,14419.0
2023-03-21T12:06:35.000Z,14665.0
2023-03-21T12:07:35.000Z,14853.0
2023-03-21T12:08:36.000Z,14314.0
2023-03-21T12:09:35.000Z,14313.0
2023-03-21T12:10:35.000Z,16000.0
2023-03-21T12:11:35.000Z,16000.0
2023-03-21T12:12:35.000Z,16000.0
2023-03-21T12:13:36.000Z,16000.0
2023-03-21T12:14:35.000Z,16000.0
2023-03-21T12:15:35.000Z,16000.0
2023-03-21T12:16:34.000Z,16000.0
2023-03-21T12:17:35.000Z,16000.0
2023-03-21T12:18:35.000Z,16000.0
2023-03-21T12:19:35.000Z,16000.0
2023-03-21T12:20:35.000Z,16000.0
2023-03-21T12:21:36.000Z,16000.0
2023-03-21T12:22:35.000Z,16000.0
2023-03-21T12:23:35.000Z,16000.0
2023-03-21T12:24:35.000Z,16000.0
2023-03-21T12:25:35.000Z,16000.0
2023-03-21T12:26:36.000Z,16000.0
2023-03-21T12:27:35.000Z,16000.0
2023-03-21T12:28:35.000Z,16000.0
2023-03-21T12:29:34.000Z,16000.0
2023-03-21T12:30:35.000Z,16000.0
2023-03-21T12:31:35.000Z,16000.0
2023-03-21T12:32:35.000Z,16000.0
2023-03-21T12:33:35.000Z,16000.0
2023-03-21T12:34:36.000Z,16000.0
2023-03-21T12:35:35.000Z,16000.0
2023-03-21T12:36:35.000Z,16000.0
2023-03-21T12:37:35.000Z,16000.0
2023-03-21T12:38:35.000Z,16000.0
2023-03-21T12:39:36.000Z,16000.0
2023-03-21T12:40:35.000Z,15346.0
2023-03-21T12:41:35.000Z,15019.0
2023-03-21T12:42:34.000Z,15781.0
2023-03-21T12:43:35.000Z,15631.0
2023-03-21T12:44:35.000Z,16000.0
2023-03-21T12:45:35.000Z,15661.0
2023-03-21T12:46:35.000Z,16000.0
2023-03-21T12:47:36.000Z,15041.0
2023-03-21T12:48:35.000Z,16000.0
2023-03-21T12:49:35.000Z,16000.0